Terminal Aerodrome Forecast
Issued by NWS Brownsville, TX

Current Version | Previous Version | Text Only | Print | Product List | Glossary Off
Versions: 1 2 3 4 5 6 7 8 9 10 11 12 13 14 15 16 17 18 19

563
FTUS44 KBRO 200522
TAFBRO
TAF
KBRO 200522Z 2006/2106 16008KT 6SM BR OVC003
     FM200800 18005KT 4SM BR OVC003
      TEMPO 2010/2014 1/2SM FG OVC002
     FM201600 17006KT 4SM BR BKN007
     FM202000 19010KT P6SM BKN015
     FM210000 15007KT P6SM SCT015 BKN035=

USA.gov is the U.S. government's official web portal to all federal, state and local government web resources and services.